createdAt,value
2018-05-16T00:01:18.552Z,6.67
2018-05-16T00:03:46.343Z,7.27
2018-05-16T00:06:13.902Z,6.63
2018-05-16T00:08:41.463Z,7.10
2018-05-16T00:11:09.013Z,6.93
2018-05-16T00:13:36.560Z,6.13
2018-05-16T00:16:04.141Z,6.83
2018-05-16T00:18:31.692Z,7.53
2018-05-16T00:20:59.289Z,7.10
2018-05-16T00:23:26.840Z,7.37
2018-05-16T00:25:54.389Z,7.17
2018-05-16T00:28:21.988Z,6.90
2018-05-16T00:30:49.540Z,6.40
2018-05-16T00:33:17.092Z,6.50
2018-05-16T00:35:45.413Z,6.40
2018-05-16T00:38:13.047Z,6.10
2018-05-16T00:40:40.576Z,6.00
2018-05-16T00:43:08.132Z,6.87
2018-05-16T00:45:36.448Z,6.20
2018-05-16T00:48:04.007Z,6.80
2018-05-16T00:50:31.566Z,7.07
2018-05-16T00:52:59.146Z,6.37
2018-05-16T00:55:26.700Z,6.23
2018-05-16T00:57:54.260Z,5.80
2018-05-16T01:00:21.816Z,5.73
2018-05-16T01:02:49.364Z,5.87
2018-05-16T01:05:16.942Z,5.87
2018-05-16T01:07:44.503Z,5.80
2018-05-16T01:10:12.060Z,6.00
2018-05-16T01:12:39.616Z,6.33
2018-05-16T01:15:07.169Z,6.20
2018-05-16T01:17:34.757Z,5.53
2018-05-16T01:20:02.316Z,6.03
2018-05-16T01:22:29.872Z,5.73
2018-05-16T01:24:58.193Z,6.23
2018-05-16T01:27:25.744Z,5.73
2018-05-16T01:29:53.326Z,5.83
2018-05-16T01:32:21.653Z,6.70
2018-05-16T01:34:49.208Z,6.03
2018-05-16T01:37:16.760Z,6.43
2018-05-16T01:39:45.085Z,6.30
2018-05-16T01:42:12.668Z,6.67
2018-05-16T01:44:40.218Z,6.50
2018-05-16T01:47:07.768Z,6.10
2018-05-16T01:49:35.344Z,6.70
2018-05-16T01:52:03.670Z,6.60
2018-05-16T01:54:31.457Z,6.43
2018-05-16T01:56:59.007Z,5.87
2018-05-16T01:59:26.561Z,6.50
2018-05-16T02:01:54.128Z,5.80
2018-05-16T02:04:21.692Z,5.73
2018-05-16T02:06:49.284Z,6.73
2018-05-16T02:09:16.840Z,6.33
2018-05-16T02:11:45.162Z,6.37
2018-05-16T02:14:12.727Z,6.80
2018-05-16T02:16:40.296Z,6.70
2018-05-16T02:19:07.880Z,6.10
2018-05-16T02:21:35.428Z,6.90
2018-05-16T02:24:03.457Z,6.40
2018-05-16T02:26:31.009Z,6.37
2018-05-16T02:28:58.561Z,5.50
2018-05-16T02:31:26.910Z,6.57
2018-05-16T02:33:54.496Z,6.57
2018-05-16T02:36:22.054Z,6.90
2018-05-16T02:38:49.612Z,6.83
2018-05-16T02:41:17.931Z,6.50
2018-05-16T02:43:45.512Z,6.97
2018-05-16T02:46:13.075Z,6.50
2018-05-16T02:48:40.629Z,7.00
2018-05-16T02:51:08.177Z,6.90
2018-05-16T02:53:35.724Z,6.57
2018-05-16T02:56:03.306Z,7.10
2018-05-16T02:58:30.852Z,6.50
2018-05-16T03:00:58.406Z,6.73
2018-05-16T03:03:25.954Z,7.00
2018-05-16T03:05:53.505Z,6.77
2018-05-16T03:08:21.094Z,7.13
2018-05-16T03:10:48.654Z,6.37
2018-05-16T03:13:16.208Z,6.77
2018-05-16T03:15:43.760Z,6.93
2018-05-16T03:18:11.312Z,6.70
2018-05-16T03:20:38.900Z,7.17
2018-05-16T03:23:06.455Z,7.37
2018-05-16T03:25:34.013Z,7.20
2018-05-16T03:28:02.337Z,6.43
2018-05-16T03:30:30.089Z,6.67
2018-05-16T03:32:57.660Z,6.93
2018-05-16T03:35:25.214Z,6.67
2018-05-16T03:37:52.769Z,6.70
2018-05-16T03:40:20.320Z,6.27
2018-05-16T03:42:47.875Z,7.03
2018-05-16T03:45:15.744Z,6.73
2018-05-16T03:47:43.301Z,5.97
2018-05-16T03:50:10.853Z,5.90
2018-05-16T03:52:38.409Z,6.07
2018-05-16T03:55:05.964Z,6.13
2018-05-16T03:57:45.420Z,5.97
2018-05-16T04:00:24.684Z,6.10
2018-05-16T04:03:04.029Z,5.97
2018-05-16T04:05:31.647Z,6.13
2018-05-16T04:07:59.204Z,4.80
2018-05-16T04:10:26.768Z,6.80
2018-05-16T04:12:54.320Z,6.50
2018-05-16T04:15:21.873Z,5.63
2018-05-16T04:17:49.452Z,5.77
2018-05-16T04:20:17.005Z,6.30
2018-05-16T04:22:44.556Z,5.13
2018-05-16T04:25:12.112Z,5.50
2018-05-16T04:27:39.670Z,5.77
2018-05-16T04:30:07.248Z,6.60
2018-05-16T04:32:34.840Z,6.20
2018-05-16T04:35:02.376Z,5.80
2018-05-16T04:37:29.933Z,5.70
2018-05-16T04:39:57.484Z,5.83
2018-05-16T04:42:25.060Z,5.60
2018-05-16T04:44:52.615Z,5.83
2018-05-16T04:47:20.168Z,5.90
2018-05-16T04:49:47.720Z,5.90
2018-05-16T04:52:15.272Z,5.70
2018-05-16T04:54:42.852Z,5.73
2018-05-16T04:57:10.400Z,5.80
2018-05-16T04:59:37.957Z,5.30
2018-05-16T05:02:05.536Z,5.97
2018-05-16T05:04:33.096Z,5.93
2018-05-16T05:07:01.416Z,6.07
2018-05-16T05:09:28.972Z,6.00
2018-05-16T05:11:56.531Z,5.77
2018-05-16T05:14:24.085Z,5.60
2018-05-16T05:16:51.639Z,5.57
2018-05-16T05:19:19.228Z,5.20
2018-05-16T05:21:46.775Z,5.40
2018-05-16T05:24:14.337Z,5.40
2018-05-16T05:26:41.896Z,5.60
2018-05-16T05:29:09.472Z,4.93
2018-05-16T05:31:37.025Z,5.60
2018-05-16T05:34:04.584Z,4.83
2018-05-16T05:36:32.139Z,4.97
2018-05-16T05:38:59.692Z,5.57
2018-05-16T05:41:27.283Z,5.10
2018-05-16T05:43:54.835Z,5.63
2018-05-16T05:46:23.160Z,5.67
2018-05-16T05:48:50.717Z,5.40
2018-05-16T05:51:18.281Z,4.97
2018-05-16T05:53:46.632Z,5.20
2018-05-16T05:56:14.192Z,4.90
2018-05-16T05:58:41.754Z,4.73
2018-05-16T06:01:09.316Z,5.47
2018-05-16T06:03:36.873Z,5.43
2018-05-16T06:06:04.650Z,4.87
2018-05-16T06:08:32.208Z,5.07
2018-05-16T06:10:59.761Z,5.10
2018-05-16T06:13:27.320Z,5.37
2018-05-16T06:15:54.881Z,4.67
2018-05-16T06:18:22.457Z,5.13
2018-05-16T06:20:50.012Z,5.00
2018-05-16T06:23:17.569Z,5.20
2018-05-16T06:25:45.128Z,5.23
2018-05-16T06:28:12.689Z,5.10
2018-05-16T06:30:40.268Z,5.13
2018-05-16T06:33:07.836Z,4.73
2018-05-16T06:35:35.392Z,4.33
2018-05-16T06:38:03.712Z,4.40
2018-05-16T06:40:31.270Z,4.20
2018-05-16T06:42:58.845Z,3.43
2018-05-16T06:45:26.403Z,3.50
2018-05-16T06:47:53.960Z,3.40
2018-05-16T06:50:21.513Z,3.37
2018-05-16T06:52:49.064Z,3.47
2018-05-16T06:55:16.633Z,3.30
2018-05-16T06:57:44.184Z,3.30
2018-05-16T07:00:11.738Z,3.23
2018-05-16T07:02:39.296Z,3.10
2018-05-16T07:05:06.854Z,3.40
2018-05-16T07:07:34.429Z,3.53
2018-05-16T07:10:01.976Z,3.27
2018-05-16T07:12:29.529Z,3.20
2018-05-16T07:14:57.092Z,3.23
2018-05-16T07:17:24.652Z,2.90
2018-05-16T07:19:52.232Z,3.50
2018-05-16T07:22:19.792Z,3.40
2018-05-16T07:24:47.352Z,3.37
2018-05-16T07:27:14.910Z,3.10
2018-05-16T07:29:42.464Z,3.40
2018-05-16T07:32:10.048Z,3.10
2018-05-16T07:34:37.601Z,3.10
2018-05-16T07:37:05.158Z,2.73
2018-05-16T07:39:33.485Z,3.20
2018-05-16T07:42:01.049Z,2.93
2018-05-16T07:44:28.637Z,3.27
2018-05-16T07:46:56.206Z,3.27
2018-05-16T07:49:24.537Z,3.30
2018-05-16T07:51:52.092Z,3.40
2018-05-16T07:54:19.651Z,3.20
2018-05-16T07:56:47.237Z,2.57
2018-05-16T07:59:15.585Z,3.10
2018-05-16T08:01:43.138Z,3.10
2018-05-16T08:04:10.688Z,3.20
2018-05-16T08:06:38.240Z,2.90
2018-05-16T08:09:05.824Z,3.40
2018-05-16T08:11:33.376Z,3.03
2018-05-16T08:14:00.929Z,2.83
2018-05-16T08:16:28.486Z,3.50
2018-05-16T08:18:56.051Z,3.23
2018-05-16T08:21:23.633Z,3.30
2018-05-16T08:23:51.184Z,2.93
2018-05-16T08:26:18.740Z,3.10
2018-05-16T08:28:46.760Z,3.10
2018-05-16T08:31:14.414Z,3.13
2018-05-16T08:33:41.916Z,2.90
2018-05-16T08:36:09.472Z,3.27
2018-05-16T08:38:37.024Z,3.57
2018-05-16T08:41:04.581Z,3.40
2018-05-16T08:43:32.140Z,3.40
2018-05-16T08:45:59.721Z,3.07
2018-05-16T08:48:27.277Z,3.33
2018-05-16T08:50:54.833Z,3.23
2018-05-16T08:53:22.393Z,3.30
2018-05-16T08:55:49.949Z,3.30
2018-05-16T08:58:17.529Z,3.37
2018-05-16T09:00:45.085Z,3.23
2018-05-16T09:03:12.640Z,3.20
2018-05-16T09:05:40.193Z,3.33
2018-05-16T09:08:07.745Z,3.40
2018-05-16T09:10:35.324Z,3.53
2018-05-16T09:13:02.884Z,3.40
2018-05-16T09:15:30.438Z,3.40
2018-05-16T09:17:58.016Z,3.37
2018-05-16T09:20:25.568Z,3.40
2018-05-16T09:22:53.120Z,3.37
2018-05-16T09:25:21.444Z,3.50
2018-05-16T09:27:48.996Z,3.20
2018-05-16T09:30:16.582Z,3.60
2018-05-16T09:32:44.137Z,3.20
2018-05-16T09:35:11.692Z,3.20
2018-05-16T09:37:39.252Z,3.60
2018-05-16T09:40:06.809Z,3.70
2018-05-16T09:42:34.392Z,3.47
2018-05-16T09:45:01.948Z,3.43
2018-05-16T09:47:29.504Z,3.73
2018-05-16T09:49:57.056Z,3.80
2018-05-16T09:52:24.617Z,3.50
2018-05-16T09:54:52.208Z,3.53
2018-05-16T09:57:20.528Z,3.47
2018-05-16T09:59:48.087Z,3.60
2018-05-16T10:02:15.640Z,3.63
2018-05-16T10:04:43.838Z,3.50
2018-05-16T10:07:11.424Z,3.47
2018-05-16T10:09:38.988Z,3.83
2018-05-16T10:12:06.556Z,3.53
2018-05-16T10:14:34.194Z,3.97
2018-05-16T10:17:01.722Z,3.60
2018-05-16T10:19:29.305Z,3.70
2018-05-16T10:21:56.873Z,3.97
2018-05-16T10:24:24.425Z,3.83
2018-05-16T10:26:52.752Z,4.00
2018-05-16T10:29:20.312Z,3.60
2018-05-16T10:31:47.913Z,3.83
2018-05-16T10:34:15.488Z,3.87
2018-05-16T10:36:43.812Z,3.70
2018-05-16T10:39:11.373Z,3.70
2018-05-16T10:41:38.924Z,3.87
2018-05-16T10:44:06.517Z,3.37
2018-05-16T10:46:34.068Z,3.60
2018-05-16T10:49:01.621Z,3.73
2018-05-16T10:51:29.177Z,3.90
2018-05-16T10:53:56.736Z,3.60
2018-05-16T10:56:24.320Z,3.57
2018-05-16T10:58:51.880Z,4.10
2018-05-16T11:01:20.197Z,3.90
2018-05-16T11:03:47.749Z,4.03
2018-05-16T11:06:15.301Z,3.57
2018-05-16T11:08:42.880Z,3.70
2018-05-16T11:11:10.437Z,3.83
2018-05-16T11:13:37.988Z,3.70
2018-05-16T11:16:05.544Z,3.97
2018-05-16T11:18:33.115Z,4.03
2018-05-16T11:21:00.707Z,3.93
2018-05-16T11:23:29.029Z,3.77
2018-05-16T11:25:56.579Z,3.77
2018-05-16T11:28:24.141Z,3.80
2018-05-16T11:30:51.700Z,3.97
2018-05-16T11:33:19.273Z,3.87
2018-05-16T11:35:46.829Z,4.27
2018-05-16T11:38:14.392Z,3.63
2018-05-16T11:40:41.976Z,4.17
2018-05-16T11:43:09.532Z,4.07
2018-05-16T11:45:37.088Z,4.30
2018-05-16T11:48:04.660Z,4.00
2018-05-16T11:50:32.212Z,4.80
2018-05-16T11:52:59.765Z,3.97
2018-05-16T11:55:27.340Z,4.10
2018-05-16T11:57:55.669Z,4.17
2018-05-16T12:00:23.233Z,4.13
2018-05-16T12:02:50.833Z,3.97
2018-05-16T12:05:18.360Z,4.23
2018-05-16T12:07:45.917Z,4.30
2018-05-16T12:10:13.468Z,4.43
2018-05-16T12:12:41.018Z,4.27
2018-05-16T12:15:08.597Z,3.90
2018-05-16T12:17:36.153Z,4.33
2018-05-16T12:20:04.476Z,4.47
2018-05-16T12:22:32.037Z,4.17
2018-05-16T12:24:59.601Z,4.50
2018-05-16T12:27:27.174Z,4.40
2018-05-16T12:29:54.728Z,4.33
2018-05-16T12:32:22.300Z,4.30
2018-05-16T12:34:49.856Z,4.60
2018-05-16T12:37:17.415Z,4.53
2018-05-16T12:39:44.995Z,5.03
2018-05-16T12:42:12.560Z,4.73
2018-05-16T12:44:40.119Z,4.47
2018-05-16T12:47:07.685Z,4.57
2018-05-16T12:49:35.239Z,4.63
2018-05-16T12:52:02.808Z,4.50
2018-05-16T12:54:30.361Z,4.50
2018-05-16T12:56:57.916Z,4.70
2018-05-16T12:59:25.708Z,4.77
2018-05-16T13:01:54.036Z,4.57
2018-05-16T13:04:21.616Z,4.73
2018-05-16T13:06:49.168Z,4.77
2018-05-16T13:09:16.730Z,4.20
2018-05-16T13:11:44.317Z,4.80
2018-05-16T13:14:12.636Z,5.07
2018-05-16T13:16:40.223Z,4.63
2018-05-16T13:19:07.772Z,4.87
2018-05-16T13:21:35.428Z,4.67
2018-05-16T13:24:03.668Z,4.70
2018-05-16T13:26:31.220Z,5.33
2018-05-16T13:28:58.803Z,4.80
2018-05-16T13:31:26.355Z,5.33
2018-05-16T13:33:53.908Z,4.70
2018-05-16T13:36:21.474Z,5.00
2018-05-16T13:38:49.051Z,4.70
2018-05-16T13:41:16.624Z,5.23
2018-05-16T13:43:44.180Z,4.60
2018-05-16T13:46:11.732Z,4.70
2018-05-16T13:48:39.294Z,5.03
2018-05-16T13:51:06.844Z,4.70
2018-05-16T13:53:34.476Z,4.97
2018-05-16T13:56:02.010Z,4.53
2018-05-16T13:58:29.569Z,4.70
2018-05-16T14:00:57.124Z,4.77
2018-05-16T14:03:24.684Z,5.27
2018-05-16T14:05:52.262Z,4.87
2018-05-16T14:08:19.823Z,4.50
2018-05-16T14:10:47.382Z,4.90
2018-05-16T14:13:14.940Z,4.70
2018-05-16T14:15:42.503Z,5.10
2018-05-16T14:18:10.150Z,4.93
2018-05-16T14:20:37.700Z,4.70
2018-05-16T14:23:05.252Z,4.67
2018-05-16T14:25:32.833Z,4.97
2018-05-16T14:28:00.399Z,4.73
2018-05-16T14:30:27.980Z,4.90
2018-05-16T14:32:55.568Z,5.03
2018-05-16T14:35:23.886Z,4.70
2018-05-16T14:37:51.440Z,4.87
2018-05-16T14:40:18.997Z,4.70
2018-05-16T14:42:46.633Z,4.97
2018-05-16T14:45:14.160Z,5.33
2018-05-16T14:47:41.723Z,4.90
2018-05-16T14:50:09.381Z,5.00
2018-05-16T14:52:37.707Z,5.40
2018-05-16T14:55:06.118Z,5.10
2018-05-16T14:57:33.704Z,4.90
2018-05-16T15:00:01.283Z,5.13
2018-05-16T15:02:28.836Z,5.00
2018-05-16T15:04:56.388Z,5.13
2018-05-16T15:07:23.993Z,5.40
2018-05-16T15:09:51.565Z,4.90
2018-05-16T15:12:19.124Z,5.23
2018-05-16T15:14:46.747Z,4.93
2018-05-16T15:17:14.290Z,4.80
2018-05-16T15:19:41.890Z,5.43
2018-05-16T15:22:09.472Z,4.97
2018-05-16T15:24:37.048Z,4.67
2018-05-16T15:27:04.608Z,4.90
2018-05-16T15:29:32.939Z,5.27
2018-05-16T15:32:00.512Z,4.60
2018-05-16T15:34:28.089Z,4.70
2018-05-16T15:36:55.644Z,4.93
2018-05-16T15:39:23.204Z,4.50
2018-05-16T15:41:51.525Z,5.10
2018-05-16T15:44:19.081Z,4.73
2018-05-16T15:46:46.686Z,5.30
2018-05-16T15:49:14.256Z,4.27
2018-05-16T15:51:42.592Z,4.60
2018-05-16T15:54:10.146Z,5.30
2018-05-16T15:56:37.704Z,4.53
2018-05-16T15:59:05.276Z,4.43
2018-05-16T16:01:32.888Z,5.40
2018-05-16T16:04:00.440Z,5.03
2018-05-16T16:06:28.080Z,4.70
2018-05-16T16:08:55.640Z,5.03
2018-05-16T16:11:23.224Z,5.50
2018-05-16T16:13:51.635Z,5.10
2018-05-16T16:16:19.132Z,4.33
2018-05-16T16:18:46.684Z,5.10
2018-05-16T16:21:14.245Z,5.27
2018-05-16T16:23:41.844Z,5.03
2018-05-16T16:26:09.407Z,4.80
2018-05-16T16:28:37.915Z,4.73
2018-05-16T16:31:05.471Z,4.60
2018-05-16T16:33:33.030Z,5.07
2018-05-16T16:36:00.616Z,4.47
2018-05-16T16:38:28.945Z,4.90
2018-05-16T16:40:56.715Z,5.23
2018-05-16T16:43:24.293Z,5.13
2018-05-16T16:45:51.857Z,5.30
2018-05-16T16:48:19.473Z,5.10
2018-05-16T16:50:47.080Z,5.50
2018-05-16T16:53:14.648Z,4.63
2018-05-16T16:55:42.223Z,5.00
2018-05-16T16:58:10.539Z,5.30
2018-05-16T17:00:38.112Z,4.60
2018-05-16T17:03:05.667Z,5.60
2018-05-16T17:05:34.026Z,5.50
2018-05-16T17:08:01.749Z,5.13
2018-05-16T17:10:29.313Z,5.43
2018-05-16T17:12:56.924Z,5.33
2018-05-16T17:15:24.479Z,5.70
2018-05-16T17:17:52.028Z,5.87
2018-05-16T17:20:19.662Z,5.50
2018-05-16T17:22:47.160Z,5.43
2018-05-16T17:25:14.752Z,6.10
2018-05-16T17:27:42.344Z,5.53
2018-05-16T17:30:09.904Z,5.50
2018-05-16T17:32:37.545Z,5.63
2018-05-16T17:35:05.954Z,5.70
2018-05-16T17:37:33.539Z,5.90
2018-05-16T17:40:01.093Z,5.50
2018-05-16T17:42:28.644Z,5.83
2018-05-16T17:44:56.256Z,5.83
2018-05-16T17:47:23.811Z,5.63
2018-05-16T17:49:51.398Z,5.30
2018-05-16T17:52:18.957Z,5.70
2018-05-16T17:54:46.556Z,5.90
2018-05-16T17:57:14.111Z,6.00
2018-05-16T17:59:41.669Z,6.20
2018-05-16T18:02:09.248Z,6.17
2018-05-16T18:04:37.570Z,6.40
2018-05-16T18:07:05.122Z,6.27
2018-05-16T18:09:32.717Z,5.67
2018-05-16T18:12:00.268Z,5.43
2018-05-16T18:17:33.440Z,6.40
2018-05-16T18:20:01.024Z,6.90
2018-05-16T18:22:28.585Z,6.90
2018-05-16T18:24:56.144Z,6.70
2018-05-16T18:27:24.465Z,6.63
2018-05-16T18:29:52.784Z,6.40
2018-05-16T18:32:20.360Z,6.57
2018-05-16T18:34:47.917Z,7.27
2018-05-16T18:37:15.480Z,7.00
2018-05-16T18:39:43.095Z,7.07
2018-05-16T18:42:10.605Z,6.63
2018-05-16T18:44:38.188Z,6.57
2018-05-16T18:47:06.522Z,6.23
2018-05-16T18:49:34.090Z,6.90
2018-05-16T18:52:01.670Z,7.17
2018-05-16T18:54:29.997Z,6.63
2018-05-16T18:56:57.579Z,6.90
2018-05-16T18:59:25.128Z,7.00
2018-05-16T19:01:53.458Z,6.70
2018-05-16T19:04:21.016Z,7.20
2018-05-16T19:06:48.576Z,7.93
2018-05-16T19:09:16.161Z,7.20
2018-05-16T19:11:43.719Z,7.23
2018-05-16T19:14:11.280Z,7.90
2018-05-16T19:16:38.868Z,7.03
2018-05-16T19:19:06.428Z,6.70
2018-05-16T19:21:34.012Z,7.17
2018-05-16T19:24:02.339Z,7.30
2018-05-16T19:26:29.905Z,6.93
2018-05-16T19:28:57.462Z,6.77
2018-05-16T19:31:25.021Z,7.00
2018-05-16T19:33:52.601Z,7.77
2018-05-16T19:36:20.152Z,7.40
2018-05-16T19:38:47.716Z,8.13
2018-05-16T19:41:15.264Z,7.80
2018-05-16T19:43:42.821Z,7.70
2018-05-16T19:46:10.480Z,8.03
2018-05-16T19:48:37.980Z,7.27
2018-05-16T19:51:05.532Z,7.87
2018-05-16T19:53:33.848Z,7.43
2018-05-16T19:56:01.404Z,8.33
2018-05-16T19:58:29.024Z,7.87
2018-05-16T20:00:56.572Z,8.07
2018-05-16T20:03:24.959Z,7.17
2018-05-16T20:05:52.486Z,8.60
2018-05-16T20:08:20.047Z,8.27
2018-05-16T20:10:47.728Z,7.63
2018-05-16T20:13:15.284Z,8.17
2018-05-16T20:15:42.837Z,8.03
2018-05-16T20:18:11.169Z,8.23
2018-05-16T20:20:38.731Z,8.03
2018-05-16T20:23:06.496Z,7.93
2018-05-16T20:25:34.052Z,8.57
2018-05-16T20:28:01.604Z,8.30
2018-05-16T20:30:29.156Z,9.50
2018-05-16T20:32:56.713Z,8.43
2018-05-16T20:35:24.296Z,9.30
2018-05-16T20:37:51.848Z,9.13
2018-05-16T20:40:19.404Z,8.93
2018-05-16T20:42:46.957Z,8.47
2018-05-16T20:45:14.556Z,9.63
2018-05-16T20:47:42.124Z,8.93
2018-05-16T20:50:09.677Z,9.00
2018-05-16T20:52:38.003Z,8.53
2018-05-16T20:55:05.557Z,8.50
2018-05-16T20:57:33.152Z,8.80
2018-05-16T21:00:00.722Z,9.20
2018-05-16T21:02:29.046Z,8.60
2018-05-16T21:04:56.596Z,9.60
2018-05-16T21:07:24.155Z,8.87
2018-05-16T21:09:51.708Z,8.60
2018-05-16T21:12:19.332Z,9.47
2018-05-16T21:14:47.661Z,9.53
2018-05-16T21:17:15.216Z,9.23
2018-05-16T21:19:42.776Z,9.20
2018-05-16T21:22:10.332Z,9.00
2018-05-16T21:24:37.908Z,8.40
2018-05-16T21:27:05.464Z,9.23
2018-05-16T21:29:33.016Z,9.20
2018-05-16T21:32:00.581Z,10.40
2018-05-16T21:34:28.140Z,9.00
2018-05-16T21:36:55.712Z,9.43
2018-05-16T21:39:24.035Z,9.30
2018-05-16T21:41:51.594Z,9.30
2018-05-16T21:44:19.152Z,10.00
2018-05-16T21:46:46.711Z,9.90
2018-05-16T21:49:14.292Z,10.83
2018-05-16T21:51:41.845Z,9.27
2018-05-16T21:54:09.406Z,9.57
2018-05-16T21:56:37.056Z,8.93
2018-05-16T21:59:04.541Z,8.63
2018-05-16T22:01:32.129Z,8.17
2018-05-16T22:03:59.685Z,8.13
2018-05-16T22:06:27.244Z,9.00
2018-05-16T22:08:55.576Z,8.13
2018-05-16T22:11:23.128Z,8.10
2018-05-16T22:13:50.707Z,7.83
2018-05-16T22:16:19.030Z,7.73
2018-05-16T22:18:46.592Z,7.17
2018-05-16T22:21:14.144Z,6.97
2018-05-16T22:23:42.459Z,7.17
2018-05-16T22:26:10.041Z,6.67
2018-05-16T22:28:37.588Z,6.03
2018-05-16T22:31:10.828Z,5.97
2018-05-16T22:33:44.670Z,6.07
2018-05-16T22:36:17.890Z,5.90
2018-05-16T22:38:51.160Z,6.07
2018-05-16T22:41:24.304Z,5.27
2018-05-16T22:44:12.551Z,5.70
2018-05-16T22:46:40.104Z,5.57
2018-05-16T22:49:07.660Z,5.30
2018-05-16T22:51:35.220Z,5.63
2018-05-16T22:54:03.560Z,5.00
2018-05-16T22:56:31.108Z,4.57
2018-05-16T22:58:58.663Z,5.00
2018-05-16T23:01:26.221Z,4.80
2018-05-16T23:03:53.776Z,4.70
2018-05-16T23:06:21.354Z,4.83
2018-05-16T23:08:48.912Z,4.20
2018-05-16T23:11:16.464Z,4.60
2018-05-16T23:13:44.032Z,4.53
2018-05-16T23:16:11.601Z,4.47
2018-05-16T23:18:39.926Z,4.57
2018-05-16T23:21:07.484Z,3.97
2018-05-16T23:23:35.120Z,3.80
2018-05-16T23:26:02.614Z,3.57
2018-05-16T23:28:30.165Z,3.77
2018-05-16T23:30:57.716Z,3.50
2018-05-16T23:33:25.270Z,2.97
2018-05-16T23:35:52.820Z,3.23
2018-05-16T23:38:20.369Z,3.47
2018-05-16T23:40:47.946Z,3.00
2018-05-16T23:43:15.496Z,2.80
2018-05-16T23:45:43.045Z,2.60
2018-05-16T23:48:10.599Z,2.90
2018-05-16T23:50:38.179Z,2.50
2018-05-16T23:53:05.756Z,3.23
2018-05-16T23:55:33.312Z,2.40
2018-05-16T23:58:00.864Z,2.23
